Time;durP1;ratioP1;P1;durP2;ratioP2;P2;SDS_P1;SDS_P2;PMS_P1;PMS_P2;Temp;Humidity;BMP_temperature;BMP_pressure;BME280_temperature;BME280_humidity;BME280_pressure;Samples;Min_cycle;Max_cycle;Signal;HPM_P1;HPM_P2
2022/06/10 00:00:56;;;;;;;;;;;;;;;16.11;100.00;97877.56;1780942;80;21784;-84
2022/06/10 00:03:24;;;;;;;;;;;;;;;16.12;100.00;97880.53;1781952;79;20156;-84
2022/06/10 00:05:50;;;;;;;;;;;;;;;16.13;100.00;97882.14;1781794;80;20943;-84
2022/06/10 00:08:24;;;;;;;;;;;;;;;16.14;100.00;97883.74;1781910;79;20168;-87
2022/06/10 00:10:50;;;;;;;;;;;;;;;16.14;100.00;97887.84;1781817;80;20469;-85
2022/06/10 00:13:20;;;;;;;;;;;;;;;16.15;100.00;97888.08;1781929;79;21996;-83
2022/06/10 00:15:46;;;;;;;;;;;;;;;16.17;100.00;97889.95;1776770;80;20180;-84
2022/06/10 00:18:12;;;;;;;;;;;;;;;16.18;100.00;97892.37;1742003;80;20164;-84
2022/06/10 00:20:38;;;;;;;;;;;;;;;16.21;100.00;97891.72;1782036;80;20187;-88
2022/06/10 00:23:04;;;;;;;;;;;;;;;16.26;100.00;97890.77;1781865;80;20200;-88
2022/06/10 00:25:30;;;;;;;;;;;;;;;16.19;100.00;97887.70;1777867;80;21172;-83
2022/06/10 00:27:55;;;;;;;;;;;;;;;16.21;100.00;97893.08;1739967;81;20186;-88
2022/06/10 00:30:24;;;;;;;;;;;;;;;16.23;100.00;97892.20;1765573;80;20222;-88
2022/06/10 00:32:50;;;;;;;;;;;;;;;16.23;100.00;97893.56;1745143;80;20166;-84
2022/06/10 00:35:16;;;;;;;;;;;;;;;16.24;100.00;97894.39;1757490;80;20158;-89
2022/06/10 00:37:42;;;;;;;;;;;;;;;16.22;100.00;97894.69;1778522;79;21119;-88
2022/06/10 00:40:11;;;;;;;;;;;;;;;16.25;100.00;97903.64;1778307;80;20198;-87
2022/06/10 00:42:37;;;;;;;;;;;;;;;16.29;100.00;97905.97;1781656;80;20183;-88
2022/06/10 00:45:04;;;;;;;;;;;;;;;16.33;100.00;97908.31;1734991;82;20466;-84
2022/06/10 00:47:35;;;;;;;;;;;;;;;16.35;100.00;97906.06;1739945;80;20348;-83
2022/06/10 00:50:23;;;;;;;;;;;;;;;16.40;100.00;97908.38;1764792;80;21192;-83
2022/06/10 00:52:52;;;;;;;;;;;;;;;16.43;100.00;97911.86;1781728;80;20168;-83
2022/06/10 00:55:28;;;;;;;;;;;;;;;16.47;100.00;97909.52;1780729;80;20295;-88
2022/06/10 00:57:46;;;;;;;;;;;;;;;16.49;100.00;97913.30;1780179;80;20593;-84
2022/06/10 01:00:16;;;;;;;;;;;;;;;16.49;100.00;97909.20;1776596;80;20320;-83
2022/06/10 01:02:42;;;;;;;;;;;;;;;16.48;100.00;97905.66;1743425;80;21154;-88
2022/06/10 01:05:12;;;;;;;;;;;;;;;16.51;100.00;97900.13;1767964;80;20211;-88
2022/06/10 01:07:40;;;;;;;;;;;;;;;16.51;100.00;97900.94;1780244;80;20518;-84
2022/06/10 01:10:08;;;;;;;;;;;;;;;16.51;100.00;97900.94;1752197;80;20199;-88
2022/06/10 01:12:53;;;;;;;;;;;;;;;16.54;100.00;97904.95;1781874;79;20163;-84
2022/06/10 01:15:50;;;;;;;;;;;;;;;16.57;100.00;97904.30;1781681;80;21057;-83
2022/06/10 01:18:25;;;;;;;;;;;;;;;16.57;100.00;97903.73;1781259;79;20180;-88
2022/06/10 01:21:01;;;;;;;;;;;;;;;16.58;100.00;97903.20;1775275;80;20197;-87
2022/06/10 01:23:47;;;;;;;;;;;;;;;16.55;100.00;97904.62;1738902;82;20206;-87
2022/06/10 01:27:47;;;;;;;;;;;;;;;16.56;100.00;97910.89;1781351;80;20176;-87
2022/06/10 01:29:29;;;;;;;;;;;;;;;16.57;100.00;97909.77;1775226;79;21091;-86
2022/06/10 01:31:58;;;;;;;;;;;;;;;16.58;100.00;97913.58;1778704;80;20188;-88
2022/06/10 01:34:39;;;;;;;;;;;;;;;16.57;100.00;97916.03;1781749;80;20250;-83
2022/06/10 01:37:14;;;;;;;;;;;;;;;16.60;100.00;97914.61;1782078;79;20164;-88
2022/06/10 01:40:02;;;;;;;;;;;;;;;16.62;100.00;97917.82;1777965;80;20164;-88
2022/06/10 01:42:30;;;;;;;;;;;;;;;16.63;100.00;97920.23;1781724;79;21160;-82
2022/06/10 01:45:15;;;;;;;;;;;;;;;16.67;100.00;97926.45;1774099;80;20439;-84
2022/06/10 01:47:54;;;;;;;;;;;;;;;16.63;100.00;97922.97;1748156;81;20190;-87
2022/06/10 01:50:42;;;;;;;;;;;;;;;16.61;100.00;97929.33;1768993;80;20192;-87
2022/06/10 01:53:14;;;;;;;;;;;;;;;16.59;100.00;97924.75;1780699;79;20514;-84
2022/06/10 01:55:45;;;;;;;;;;;;;;;16.60;100.00;97929.09;1773684;80;21328;-88
2022/06/10 01:58:15;;;;;;;;;;;;;;;16.59;100.00;97934.33;1739516;80;20162;-84
2022/06/10 02:00:43;;;;;;;;;;;;;;;16.58;100.00;97931.35;1767262;80;20187;-88
2022/06/10 02:03:28;;;;;;;;;;;;;;;16.59;100.00;97945.83;1781210;79;20179;-84
2022/06/10 02:05:57;;;;;;;;;;;;;;;16.57;100.00;97952.16;1780759;80;20183;-83
2022/06/10 02:08:29;;;;;;;;;;;;;;;16.58;100.00;97956.53;1780210;79;21144;-88
2022/06/10 02:11:05;;;;;;;;;;;;;;;16.58;100.00;97961.44;1781608;80;20160;-84
2022/06/10 02:13:34;;;;;;;;;;;;;;;16.60;100.00;97964.66;1780993;79;20807;-88
2022/06/10 02:16:01;;;;;;;;;;;;;;;16.59;100.00;97964.98;1781722;80;20172;-83
2022/06/10 02:18:39;;;;;;;;;;;;;;;16.58;100.00;97967.47;1781664;79;20980;-84
2022/06/10 02:21:08;;;;;;;;;;;;;;;16.59;100.00;97964.41;1779072;80;21162;-83
2022/06/10 02:23:36;;;;;;;;;;;;;;;16.54;100.00;97969.22;1781083;80;20196;-84
2022/06/10 02:26:03;;;;;;;;;;;;;;;16.49;100.00;97967.46;1751959;80;20189;-84
2022/06/10 02:28:33;;;;;;;;;;;;;;;16.42;100.00;97967.13;1781733;80;20959;-84
2022/06/10 02:31:02;;;;;;;;;;;;;;;16.35;100.00;97974.98;1768982;80;20168;-84
2022/06/10 02:33:28;;;;;;;;;;;;;;;16.38;100.00;97972.97;1739702;81;21102;-83
2022/06/10 02:36:03;;;;;;;;;;;;;;;16.38;100.00;97977.07;1754742;80;20210;-88
2022/06/10 02:38:39;;;;;;;;;;;;;;;16.38;100.00;97976.27;1781443;80;20171;-84
2022/06/10 02:41:24;;;;;;;;;;;;;;;16.37;100.00;97979.56;1779900;80;20499;-83
2022/06/10 02:43:53;;;;;;;;;;;;;;;16.35;100.00;97981.82;1777031;80;20223;-88
2022/06/10 02:46:35;;;;;;;;;;;;;;;16.38;100.00;97983.91;1779369;80;21674;-84
2022/06/10 02:49:10;;;;;;;;;;;;;;;16.42;100.00;98000.50;1760963;80;20183;-84
2022/06/10 02:51:36;;;;;;;;;;;;;;;16.45;100.00;98002.02;1776216;79;20133;-88
2022/06/10 02:54:03;;;;;;;;;;;;;;;16.48;100.00;98001.38;1777186;80;20190;-89
2022/06/10 02:56:29;;;;;;;;;;;;;;;16.51;100.00;98009.53;1781811;80;20196;-83
2022/06/10 03:01:54;;;;;;;;;;;;;;;16.56;100.00;98010.16;1781758;79;20423;-84
2022/06/10 03:04:32;;;;;;;;;;;;;;;16.59;100.00;98016.39;1781746;80;20164;-86
2022/06/10 03:07:13;;;;;;;;;;;;;;;16.62;100.00;98015.73;1781684;79;20145;-84
2022/06/10 03:09:48;;;;;;;;;;;;;;;16.63;100.00;98015.98;1782177;80;20184;-88
2022/06/10 03:12:18;;;;;;;;;;;;;;;16.63;100.00;98020.64;1750529;80;21050;-83
2022/06/10 03:15:04;;;;;;;;;;;;;;;16.63;100.00;98020.08;1767016;80;20235;-88
2022/06/10 03:17:42;;;;;;;;;;;;;;;16.65;100.00;98026.59;1746406;80;20171;-87
2022/06/10 03:20:23;;;;;;;;;;;;;;;16.63;100.00;98032.39;1777000;80;20184;-84
2022/06/10 03:23:27;;;;;;;;;;;;;;;16.65;100.00;98034.80;1782063;79;20183;-88
2022/06/10 03:26:06;;;;;;;;;;;;;;;16.64;100.00;98040.84;1781836;80;21723;-88
2022/06/10 03:28:47;;;;;;;;;;;;;;;16.65;100.00;98041.64;1781894;80;20218;-88
2022/06/10 03:31:15;;;;;;;;;;;;;;;16.67;100.00;98048.19;1760075;80;20439;-88
2022/06/10 03:33:57;;;;;;;;;;;;;;;16.64;100.00;98042.20;1781952;79;20167;-84
2022/06/10 03:36:25;;;;;;;;;;;;;;;16.62;100.00;98044.46;1757712;80;20474;-87
2022/06/10 03:38:51;;;;;;;;;;;;;;;16.66;100.00;98051.45;1781868;79;21070;-88
2022/06/10 03:41:27;;;;;;;;;;;;;;;16.69;100.00;98050.06;1753759;80;20215;-84
2022/06/10 03:43:53;;;;;;;;;;;;;;;16.70;100.00;98049.74;1753521;80;20841;-84
2022/06/10 03:46:20;;;;;;;;;;;;;;;16.75;100.00;98059.71;1757474;80;20187;-87
2022/06/10 03:48:46;;;;;;;;;;;;;;;16.80;99.81;98061.75;1781876;80;20164;-84
2022/06/10 03:51:13;;;;;;;;;;;;;;;16.84;100.00;98063.30;1782036;80;21104;-87
2022/06/10 03:53:38;;;;;;;;;;;;;;;16.87;99.97;98064.02;1781879;79;20168;-84
2022/06/10 03:56:04;;;;;;;;;;;;;;;16.89;99.93;98057.66;1757978;80;20199;-83
2022/06/10 03:58:30;;;;;;;;;;;;;;;16.91;99.82;98066.34;1782248;80;20245;-85
2022/06/10 04:00:58;;;;;;;;;;;;;;;16.91;99.62;98059.50;1782022;80;20175;-84
2022/06/10 04:03:24;;;;;;;;;;;;;;;16.94;99.47;98059.45;1781868;79;21936;-88
2022/06/10 04:05:50;;;;;;;;;;;;;;;16.96;99.41;98060.73;1781916;80;20216;-88
2022/06/10 04:08:15;;;;;;;;;;;;;;;17.01;99.36;98062.52;1781892;79;20174;-83
2022/06/10 04:10:41;;;;;;;;;;;;;;;17.03;99.48;98058.89;1782031;80;20171;-88
2022/06/10 04:13:07;;;;;;;;;;;;;;;17.05;99.18;98064.84;1782016;79;20214;-84
2022/06/10 04:15:33;;;;;;;;;;;;;;;17.08;99.06;98071.84;1765188;80;21145;-83
2022/06/10 04:17:59;;;;;;;;;;;;;;;17.12;98.74;98074.20;1739885;82;20276;-88
2022/06/10 04:20:34;;;;;;;;;;;;;;;17.11;98.66;98067.11;1778868;80;20265;-84
2022/06/10 04:23:01;;;;;;;;;;;;;;;17.13;100.00;98070.33;1750948;80;20508;-88
2022/06/10 04:25:26;;;;;;;;;;;;;;;17.16;100.00;98067.50;1770377;80;20199;-84
2022/06/10 04:27:52;;;;;;;;;;;;;;;17.24;100.00;98074.11;1740423;80;21892;-83
2022/06/10 04:30:26;;;;;;;;;;;;;;;17.28;100.00;98081.94;1743255;80;20194;-83
2022/06/10 04:32:52;;;;;;;;;;;;;;;17.36;100.00;98097.01;1781400;79;20467;-84
2022/06/10 04:35:19;;;;;;;;;;;;;;;17.36;99.62;98096.20;1781934;80;20547;-84
2022/06/10 04:37:45;;;;;;;;;;;;;;;17.39;99.32;98097.72;1781817;80;20192;-88
2022/06/10 04:40:16;;;;;;;;;;;;;;;17.46;99.30;98106.83;1778540;80;21235;-84
2022/06/10 04:42:41;;;;;;;;;;;;;;;17.49;99.06;98107.55;1781787;80;20164;-88
2022/06/10 04:45:07;;;;;;;;;;;;;;;17.52;99.11;98110.20;1763932;80;20185;-87
2022/06/10 04:47:33;;;;;;;;;;;;;;;17.56;99.06;98112.55;1777197;79;20474;-83
2022/06/10 04:49:59;;;;;;;;;;;;;;;17.58;99.38;98111.09;1781979;80;20162;-84
2022/06/10 04:52:27;;;;;;;;;;;;;;;17.56;99.39;98116.09;1769601;80;21207;-88
2022/06/10 04:54:54;;;;;;;;;;;;;;;17.47;100.00;98125.67;1757982;80;20186;-83
2022/06/10 04:57:20;;;;;;;;;;;;;;;17.39;100.00;98129.22;1773098;79;20152;-87
2022/06/10 04:59:46;;;;;;;;;;;;;;;17.40;99.88;98136.30;1778750;80;20482;-87
2022/06/10 05:02:12;;;;;;;;;;;;;;;17.39;100.00;98131.95;1779556;80;20455;-84
2022/06/10 05:04:38;;;;;;;;;;;;;;;17.38;100.00;98135.83;1778311;80;21085;-88
2022/06/10 05:07:04;;;;;;;;;;;;;;;17.39;100.00;98138.00;1781562;80;20225;-84
2022/06/10 05:09:30;;;;;;;;;;;;;;;17.42;100.00;98138.72;1791711;79;20199;-88
2022/06/10 05:11:55;;;;;;;;;;;;;;;17.48;99.58;98137.44;1773696;79;20167;-88
2022/06/10 05:14:21;;;;;;;;;;;;;;;17.55;99.41;98142.45;1780599;80;20200;-84
2022/06/10 05:16:47;;;;;;;;;;;;;;;17.59;99.21;98151.05;1755608;80;20960;-84
2022/06/10 05:19:13;;;;;;;;;;;;;;;17.61;99.18;98157.04;1773259;80;20218;-83
2022/06/10 05:21:38;;;;;;;;;;;;;;;17.65;98.86;98161.30;1778598;79;20230;-84
2022/06/10 05:24:05;;;;;;;;;;;;;;;17.66;98.61;98164.27;1780219;79;20171;-88
2022/06/10 05:26:32;;;;;;;;;;;;;;;17.68;98.30;98165.55;1773589;80;20226;-83
2022/06/10 05:28:59;;;;;;;;;;;;;;;17.74;98.40;98168.41;1772279;80;21230;-87
2022/06/10 05:31:25;;;;;;;;;;;;;;;17.83;98.33;98173.09;1755788;80;20214;-87
2022/06/10 05:36:35;;;;;;;;;;;;;;;17.81;97.07;98180.27;1713085;82;20145;-83
2022/06/10 05:39:00;;;;;;;;;;;;;;;17.86;96.98;98181.48;1738969;81;20253;-83
2022/06/10 05:44:10;;;;;;;;;;;;;;;18.02;97.07;98190.00;1768908;79;20164;-84
2022/06/10 05:46:36;;;;;;;;;;;;;;;18.11;96.92;98197.65;1754545;80;20187;-83
2022/06/10 05:49:01;;;;;;;;;;;;;;;18.16;96.92;98187.89;1786187;78;20234;-84
2022/06/10 05:51:27;;;;;;;;;;;;;;;18.25;96.91;98186.51;1774943;80;20195;-83
2022/06/10 05:53:53;;;;;;;;;;;;;;;18.33;96.61;98187.06;1777040;80;21192;-83
2022/06/10 05:56:19;;;;;;;;;;;;;;;18.41;96.56;98188.17;1773179;79;20198;-83
2022/06/10 05:58:44;;;;;;;;;;;;;;;18.49;95.94;98184.60;1779735;79;20226;-83
2022/06/10 06:01:10;;;;;;;;;;;;;;;18.49;95.61;98194.20;1759787;80;20549;-83
2022/06/10 06:03:37;;;;;;;;;;;;;;;18.36;93.81;98192.45;1768309;79;20207;-83
2022/06/10 06:06:03;;;;;;;;;;;;;;;18.41;94.60;98184.86;1779624;78;21082;-83
2022/06/10 06:08:29;;;;;;;;;;;;;;;18.50;94.95;98200.73;1762556;79;20293;-83
2022/06/10 06:10:54;;;;;;;;;;;;;;;18.56;94.48;98195.31;1772473;80;20782;-83
2022/06/10 06:13:20;;;;;;;;;;;;;;;18.58;93.59;98197.73;1779692;79;20550;-83
2022/06/10 06:15:46;;;;;;;;;;;;;;;18.56;93.54;98195.88;1774081;79;20261;-88
2022/06/10 06:18:12;;;;;;;;;;;;;;;18.62;93.40;98195.92;1775440;79;21022;-87
2022/06/10 06:20:37;;;;;;;;;;;;;;;18.73;93.85;98189.56;1716710;81;20255;-88
2022/06/10 06:23:04;;;;;;;;;;;;;;;18.81;92.96;98192.27;1702972;82;20189;-87
2022/06/10 06:25:31;;;;;;;;;;;;;;;18.75;90.77;98199.07;1684518;83;20596;-90
2022/06/10 06:27:57;;;;;;;;;;;;;;;18.92;91.99;98204.26;1696420;82;20191;-88
2022/06/10 06:30:31;;;;;;;;;;;;;;;19.06;92.66;98204.28;1725178;80;21096;-88
2022/06/10 06:32:56;;;;;;;;;;;;;;;19.17;92.46;98200.58;1735745;80;20487;-84
2022/06/10 06:35:22;;;;;;;;;;;;;;;19.09;89.55;98205.55;1715762;80;20152;-84
2022/06/10 06:37:48;;;;;;;;;;;;;;;19.07;89.84;98220.98;1725198;81;20466;-84
2022/06/10 06:40:14;;;;;;;;;;;;;;;19.02;89.27;98214.86;1707046;81;20655;-84
2022/06/10 06:42:40;;;;;;;;;;;;;;;18.97;89.79;98219.16;1744665;81;21398;-84
2022/06/10 06:45:07;;;;;;;;;;;;;;;19.01;90.29;98222.30;1703110;82;20363;-84
2022/06/10 06:47:32;;;;;;;;;;;;;;;18.91;88.91;98224.05;1770374;78;20222;-83
2022/06/10 06:49:58;;;;;;;;;;;;;;;19.20;90.44;98224.63;1772663;79;20228;-84
2022/06/10 06:52:24;;;;;;;;;;;;;;;19.40;90.71;98225.27;1769781;79;20166;-84
2022/06/10 06:54:50;;;;;;;;;;;;;;;19.60;90.87;98229.20;1772453;79;21242;-84
2022/06/10 06:57:18;;;;;;;;;;;;;;;19.61;87.69;98230.00;1775775;79;20164;-84
2022/06/10 06:59:43;;;;;;;;;;;;;;;19.54;87.27;98233.23;1770871;79;20502;-84
2022/06/10 07:02:10;;;;;;;;;;;;;;;19.44;87.49;98230.88;1773000;79;20171;-84
2022/06/10 07:04:36;;;;;;;;;;;;;;;19.36;87.71;98232.54;1767448;79;20488;-84
2022/06/10 07:07:03;;;;;;;;;;;;;;;19.35;88.30;98231.50;1769049;79;21217;-84
2022/06/10 07:09:29;;;;;;;;;;;;;;;19.40;88.60;98236.82;1727806;80;20228;-84
2022/06/10 07:11:55;;;;;;;;;;;;;;;19.59;88.33;98230.91;1708395;82;20214;-84
2022/06/10 07:14:22;;;;;;;;;;;;;;;19.81;88.80;98240.77;1701547;83;20156;-84
2022/06/10 07:16:52;;;;;;;;;;;;;;;20.02;87.50;98240.78;1769211;78;20450;-85
2022/06/10 07:19:16;;;;;;;;;;;;;;;20.36;85.25;98245.17;1774193;79;21277;-84
2022/06/10 07:21:42;;;;;;;;;;;;;;;20.77;82.48;98249.23;1769768;79;20253;-84
2022/06/10 07:24:08;;;;;;;;;;;;;;;20.94;81.22;98245.48;1773118;79;20289;-84
2022/06/10 07:26:33;;;;;;;;;;;;;;;21.15;79.81;98240.44;1759538;79;20360;-84
2022/06/10 07:29:00;;;;;;;;;;;;;;;21.56;80.41;98245.74;1765693;79;20601;-84
2022/06/10 07:31:25;;;;;;;;;;;;;;;21.73;79.41;98249.40;1776220;79;21104;-84
2022/06/10 07:33:51;;;;;;;;;;;;;;;21.75;78.96;98242.95;1768602;78;20230;-85
2022/06/10 07:36:17;;;;;;;;;;;;;;;21.76;78.05;98242.60;1769053;78;20304;-84
2022/06/10 07:38:42;;;;;;;;;;;;;;;21.77;78.61;98246.96;1769026;79;21241;-85
2022/06/10 07:43:53;;;;;;;;;;;;;;;21.34;78.73;98236.56;1773017;79;21281;-84
2022/06/10 07:46:20;;;;;;;;;;;;;;;20.84;79.29;98239.81;1771678;79;20742;-84
2022/06/10 07:48:45;;;;;;;;;;;;;;;21.18;79.85;98235.61;1762731;80;20364;-84
2022/06/10 07:51:11;;;;;;;;;;;;;;;21.12;79.02;98242.73;1774843;79;20143;-84
2022/06/10 07:53:41;;;;;;;;;;;;;;;20.91;78.76;98243.39;1776724;79;21053;-84
2022/06/10 07:56:05;;;;;;;;;;;;;;;20.82;78.71;98247.63;1772157;79;21242;-84
2022/06/10 07:58:31;;;;;;;;;;;;;;;20.61;79.08;98248.84;1767759;78;20175;-84
2022/06/10 08:00:57;;;;;;;;;;;;;;;20.81;79.81;98246.59;1770904;79;20207;-84
2022/06/10 08:03:23;;;;;;;;;;;;;;;20.61;79.52;98246.90;1773578;79;20254;-84
2022/06/10 08:05:49;;;;;;;;;;;;;;;20.32;81.69;98255.23;1777491;79;20199;-84
2022/06/10 08:08:16;;;;;;;;;;;;;;;20.36;81.27;98256.19;1766374;79;21059;-84
2022/06/10 08:10:42;;;;;;;;;;;;;;;20.11;82.10;98256.64;1772834;79;20145;-84
2022/06/10 08:13:08;;;;;;;;;;;;;;;19.92;83.37;98263.42;1773218;79;20249;-84
2022/06/10 08:15:34;;;;;;;;;;;;;;;19.94;83.64;98261.14;1706968;81;21313;-84
2022/06/10 08:17:59;;;;;;;;;;;;;;;20.33;82.63;98259.59;1701733;82;20706;-84
2022/06/10 08:23:12;;;;;;;;;;;;;;;20.75;81.52;98273.53;1767888;79;20172;-84
2022/06/10 08:25:38;;;;;;;;;;;;;;;20.78;80.32;98267.94;1767302;80;20558;-85
2022/06/10 08:28:04;;;;;;;;;;;;;;;20.84;79.78;98267.92;1775034;79;20238;-84
2022/06/10 08:30:29;;;;;;;;;;;;;;;20.68;80.77;98275.22;1774572;79;20222;-84
2022/06/10 08:32:55;;;;;;;;;;;;;;;20.38;81.73;98274.53;1769777;79;21632;-84
2022/06/10 08:35:21;;;;;;;;;;;;;;;20.21;82.42;98283.73;1770177;80;20825;-84
2022/06/10 08:37:46;;;;;;;;;;;;;;;20.10;82.88;98282.55;1769062;78;20210;-84
2022/06/10 08:40:31;;;;;;;;;;;;;;;20.19;82.85;98292.33;1769604;79;20833;-84
2022/06/10 08:43:02;;;;;;;;;;;;;;;20.15;82.70;98287.83;1765737;79;20152;-84
2022/06/10 08:45:34;;;;;;;;;;;;;;;20.13;83.31;98300.55;1769602;78;21268;-84
2022/06/10 08:48:22;;;;;;;;;;;;;;;20.02;84.03;98299.34;1774186;78;20270;-84
2022/06/10 08:51:04;;;;;;;;;;;;;;;19.95;84.16;98292.99;1778544;79;20226;-85
2022/06/10 08:53:56;;;;;;;;;;;;;;;19.92;84.06;98300.55;1779213;79;20242;-84
2022/06/10 08:56:25;;;;;;;;;;;;;;;19.82;84.23;98300.91;1778498;79;20635;-84
2022/06/10 08:59:11;;;;;;;;;;;;;;;19.60;84.69;98303.98;1774244;79;22008;-84
2022/06/10 09:02:15;;;;;;;;;;;;;;;19.44;85.13;98303.70;1771126;79;20254;-84
2022/06/10 09:05:03;;;;;;;;;;;;;;;19.47;85.31;98317.34;1750132;80;20202;-83
2022/06/10 09:07:33;;;;;;;;;;;;;;;19.45;85.52;98321.23;1775338;79;20161;-84
2022/06/10 09:09:59;;;;;;;;;;;;;;;19.34;85.88;98328.23;1775716;79;20176;-84
2022/06/10 09:12:43;;;;;;;;;;;;;;;19.23;86.14;98330.28;1751810;80;21771;-84
2022/06/10 09:15:10;;;;;;;;;;;;;;;19.08;87.40;98340.69;1770788;78;20180;-84
2022/06/10 09:17:41;;;;;;;;;;;;;;;18.83;88.76;98349.22;1767328;79;20562;-84
2022/06/10 09:20:16;;;;;;;;;;;;;;;18.51;90.49;98346.39;1774430;80;20388;-84
2022/06/10 09:22:57;;;;;;;;;;;;;;;18.32;91.69;98354.95;1767269;79;20246;-84
2022/06/10 09:25:41;;;;;;;;;;;;;;;18.26;92.12;98353.48;1765856;80;21048;-84
2022/06/10 09:28:07;;;;;;;;;;;;;;;18.14;93.62;98354.70;1768612;80;20281;-84
2022/06/10 09:30:59;;;;;;;;;;;;;;;18.09;93.46;98357.58;1738357;80;20226;-84
2022/06/10 09:33:48;;;;;;;;;;;;;;;18.04;94.20;98357.75;1772218;79;20199;-84
2022/06/10 09:36:18;;;;;;;;;;;;;;;18.03;94.65;98356.95;1772304;79;20220;-84
2022/06/10 09:40:35;;;;;;;;;;;;;;;18.01;95.79;98355.06;1775705;80;21207;-84
2022/06/10 09:41:48;;;;;;;;;;;;;;;18.02;95.03;98354.50;1761686;78;20412;-84
2022/06/10 09:44:23;;;;;;;;;;;;;;;17.96;96.44;98355.23;1771671;78;20227;-84
2022/06/10 09:46:53;;;;;;;;;;;;;;;18.00;96.09;98358.13;1764254;80;20259;-84
2022/06/10 09:49:31;;;;;;;;;;;;;;;18.10;94.54;98364.67;1766840;79;20512;-84
2022/06/10 09:52:11;;;;;;;;;;;;;;;18.12;94.79;98368.50;1770010;80;21026;-84
2022/06/10 09:55:10;;;;;;;;;;;;;;;18.16;94.42;98369.45;1760980;80;20188;-84
2022/06/10 09:57:45;;;;;;;;;;;;;;;18.08;94.78;98364.20;1762394;80;20794;-87
2022/06/10 10:00:26;;;;;;;;;;;;;;;18.13;94.71;98360.51;1775014;79;21074;-89
2022/06/10 10:02:56;;;;;;;;;;;;;;;18.12;94.49;98363.81;1770964;79;20195;-88
2022/06/10 10:05:37;;;;;;;;;;;;;;;18.06;94.52;98360.97;1752855;80;21223;-88
2022/06/10 10:08:18;;;;;;;;;;;;;;;18.03;94.93;98367.91;1761879;79;20206;-89
2022/06/10 10:10:55;;;;;;;;;;;;;;;18.15;93.42;98363.16;1752573;80;20199;-88
2022/06/10 10:13:29;;;;;;;;;;;;;;;18.17;93.94;98365.02;1775337;79;20302;-89
2022/06/10 10:15:56;;;;;;;;;;;;;;;;;;1774951;79;20176;-89
2022/06/10 10:18:35;;;;;;;;;;;;;;;18.18;93.61;98365.25;1772551;79;21255;-88
2022/06/10 10:21:15;;;;;;;;;;;;;;;18.04;94.23;98370.89;1770904;79;20239;-88
2022/06/10 10:23:48;;;;;;;;;;;;;;;17.89;95.04;98365.05;1765374;79;20161;-89
2022/06/10 10:26:23;;;;;;;;;;;;;;;17.73;96.87;98375.65;1770376;79;20278;-89
2022/06/10 10:28:51;;;;;;;;;;;;;;;17.79;95.95;98381.80;1774438;80;20252;-88
2022/06/10 10:31:28;;;;;;;;;;;;;;;17.71;96.22;98375.16;1773791;79;21037;-89
2022/06/10 10:33:54;;;;;;;;;;;;;;;17.63;96.62;98379.45;1770760;80;20608;-89
2022/06/10 10:36:32;;;;;;;;;;;;;;;17.67;96.00;98379.61;1774355;79;20290;-88
2022/06/10 10:39:00;;;;;;;;;;;;;;;17.49;96.72;98382.86;1775074;79;20508;-88
2022/06/10 10:41:32;;;;;;;;;;;;;;;17.47;97.71;98385.11;1724690;79;20165;-88
2022/06/10 10:44:01;;;;;;;;;;;;;;;17.52;97.40;98387.72;1773855;80;21943;-89
2022/06/10 10:46:37;;;;;;;;;;;;;;;17.58;97.18;98387.80;1756054;79;20151;-89
2022/06/10 10:49:06;;;;;;;;;;;;;;;17.65;97.00;98392.84;1765368;79;20218;-88
2022/06/10 10:51:38;;;;;;;;;;;;;;;17.77;97.39;98393.05;1768117;78;20499;-89
2022/06/10 10:54:08;;;;;;;;;;;;;;;17.91;97.77;98392.95;1735205;80;20180;-89
2022/06/10 10:56:36;;;;;;;;;;;;;;;18.06;96.31;98397.99;1773260;78;21474;-88
2022/06/10 10:59:02;;;;;;;;;;;;;;;18.19;95.60;98402.52;1763627;80;21216;-88
2022/06/10 11:01:46;;;;;;;;;;;;;;;18.32;95.22;98395.29;1768436;79;20309;-88
2022/06/10 11:04:14;;;;;;;;;;;;;;;18.30;94.13;98396.18;1771024;79;20180;-88
2022/06/10 11:06:40;;;;;;;;;;;;;;;18.37;93.95;98394.31;1769872;79;20209;-88
2022/06/10 11:09:23;;;;;;;;;;;;;;;18.34;93.76;98398.52;1777335;79;21077;-88
2022/06/10 11:11:49;;;;;;;;;;;;;;;18.36;93.64;98396.81;1765747;78;20145;-85
2022/06/10 11:14:18;;;;;;;;;;;;;;;18.36;93.77;98394.88;1769036;79;20364;-86
2022/06/10 11:16:56;;;;;;;;;;;;;;;18.31;93.36;98399.16;1789500;79;20209;-86
2022/06/10 11:19:38;;;;;;;;;;;;;;;18.27;93.69;98404.47;1753214;80;20168;-86
2022/06/10 11:22:10;;;;;;;;;;;;;;;18.27;93.73;98399.55;1774918;79;21107;-85
2022/06/10 11:24:39;;;;;;;;;;;;;;;18.22;93.78;98395.61;1776450;79;20462;-87
2022/06/10 11:27:26;;;;;;;;;;;;;;;18.12;94.35;98398.66;1771038;79;20535;-88
2022/06/10 11:29:58;;;;;;;;;;;;;;;18.09;94.44;98406.13;1743435;79;20203;-88
2022/06/10 11:32:25;;;;;;;;;;;;;;;18.23;93.90;98399.95;1763067;79;20231;-87
2022/06/10 11:35:00;;;;;;;;;;;;;;;18.34;93.80;98404.00;1776958;79;20620;-88
2022/06/10 11:37:34;;;;;;;;;;;;;;;18.39;93.34;98401.67;1763500;79;20192;-88
2022/06/10 11:40:15;;;;;;;;;;;;;;;18.36;93.17;98401.73;1743937;80;20475;-88
2022/06/10 11:42:50;;;;;;;;;;;;;;;18.51;93.21;98399.89;1770080;78;20301;-87
2022/06/10 11:45:20;;;;;;;;;;;;;;;18.49;92.69;98399.42;1773497;79;20250;-87
2022/06/10 11:47:59;;;;;;;;;;;;;;;18.53;92.70;98399.56;1778154;79;21899;-87
2022/06/10 11:50:43;;;;;;;;;;;;;;;18.54;92.76;98400.64;1771188;79;20191;-87
2022/06/10 11:53:39;;;;;;;;;;;;;;;18.57;92.87;98399.98;1688981;81;20143;-88
2022/06/10 12:01:40;;;;;;;;;;;;;;;18.37;92.44;98396.48;1781046;79;21120;-88
2022/06/10 12:04:17;;;;;;;;;;;;;;;18.35;92.30;98394.64;1782434;78;20529;-88
2022/06/10 12:06:49;;;;;;;;;;;;;;;18.29;92.79;98395.38;1770540;79;20264;-84
2022/06/10 12:09:30;;;;;;;;;;;;;;;18.29;93.34;98399.49;1776952;79;20202;-84
2022/06/10 12:12:00;;;;;;;;;;;;;;;18.32;93.36;98395.29;1752563;80;20306;-85
2022/06/10 12:14:37;;;;;;;;;;;;;;;18.37;93.43;98396.48;1756017;79;21667;-84
2022/06/10 12:17:05;;;;;;;;;;;;;;;18.42;92.67;98402.39;1762505;79;20183;-84
2022/06/10 12:19:43;;;;;;;;;;;;;;;18.38;92.65;98401.44;1755830;80;20192;-84
2022/06/10 12:22:09;;;;;;;;;;;;;;;18.44;92.67;98402.88;1762904;79;20173;-84
2022/06/10 12:24:35;;;;;;;;;;;;;;;18.36;93.13;98394.07;1755092;80;20239;-84
2022/06/10 12:27:03;;;;;;;;;;;;;;;18.43;93.00;98400.70;1750577;80;21022;-84
2022/06/10 12:29:33;;;;;;;;;;;;;;;18.33;93.48;98392.22;1703110;82;20267;-84
2022/06/10 12:32:08;;;;;;;;;;;;;;;18.40;93.84;98397.80;1769268;79;20146;-84
2022/06/10 12:34:46;;;;;;;;;;;;;;;18.37;94.10;98398.42;1773919;80;20231;-84
2022/06/10 12:37:27;;;;;;;;;;;;;;;18.41;93.62;98400.22;1767114;79;20457;-84
2022/06/10 12:39:59;;;;;;;;;;;;;;;18.48;93.43;98397.80;1750872;80;21882;-84
2022/06/10 12:42:35;;;;;;;;;;;;;;;18.48;93.44;98397.00;1749120;80;20264;-84
2022/06/10 12:45:01;;;;;;;;;;;;;;;18.38;93.98;98401.44;1755457;80;20234;-84
2022/06/10 12:47:29;;;;;;;;;;;;;;;18.35;94.19;98404.80;1772280;78;20147;-84
2022/06/10 12:49:58;;;;;;;;;;;;;;;18.29;95.42;98404.17;1763700;79;20201;-84
2022/06/10 12:52:36;;;;;;;;;;;;;;;18.34;95.73;98406.73;1771022;78;21365;-84
2022/06/10 12:55:17;;;;;;;;;;;;;;;18.37;96.09;98408.83;1776426;78;20513;-84
2022/06/10 12:57:44;;;;;;;;;;;;;;;18.42;96.26;98405.14;1771020;79;20589;-82
2022/06/10 13:00:23;;;;;;;;;;;;;;;18.55;95.32;98405.56;1774502;79;20196;-84
2022/06/10 13:02:50;;;;;;;;;;;;;;;18.66;95.58;98408.25;1763661;80;20200;-84
2022/06/10 13:05:31;;;;;;;;;;;;;;;18.74;94.87;98401.15;1772215;79;21029;-84
2022/06/10 13:07:56;;;;;;;;;;;;;;;18.77;94.96;98397.17;1762525;79;20148;-84
2022/06/10 13:10:32;;;;;;;;;;;;;;;18.87;94.78;98399.58;1775442;79;20211;-84
2022/06/10 13:13:10;;;;;;;;;;;;;;;18.89;94.02;98395.16;1774369;80;20192;-84
2022/06/10 13:15:36;;;;;;;;;;;;;;;18.82;93.73;98392.91;1741737;79;20208;-84
2022/06/10 13:18:05;;;;;;;;;;;;;;;18.84;93.22;98393.37;1768594;79;21300;-84
2022/06/10 13:20:33;;;;;;;;;;;;;;;18.88;93.07;98397.11;1775809;80;20180;-84
2022/06/10 13:23:13;;;;;;;;;;;;;;;18.94;93.08;98403.22;1748860;80;20159;-84